sensor_id;sensor_type;location;lat;lon;timestamp;pressure;altitude;pressure_sealevel;temperature;humidity
44765;BME280;30484;52.382;5.260;2023-09-19T00:00:44;100701.41;;;23.49;100.00
44765;BME280;30484;52.382;5.260;2023-09-19T00:03:15;100705.94;;;23.32;100.00
44765;BME280;30484;52.382;5.260;2023-09-19T00:05:43;100709.88;;;23.97;100.00
44765;BME280;30484;52.382;5.260;2023-09-19T00:08:13;100715.91;;;24.09;100.00
44765;BME280;30484;52.382;5.260;2023-09-19T00:10:44;100719.44;;;23.42;100.00
44765;BME280;30484;52.382;5.260;2023-09-19T00:13:12;100715.13;;;23.82;100.00
44765;BME280;30484;52.382;5.260;2023-09-19T00:15:44;100715.06;;;23.15;100.00
44765;BME280;30484;52.382;5.260;2023-09-19T00:18:17;100725.69;;;23.00;100.00
44765;BME280;30484;52.382;5.260;2023-09-19T00:20:50;100727.91;;;23.31;100.00
44765;BME280;30484;52.382;5.260;2023-09-19T00:23:20;100734.38;;;23.72;100.00
44765;BME280;30484;52.382;5.260;2023-09-19T00:25:51;100734.88;;;23.68;100.00
44765;BME280;30484;52.382;5.260;2023-09-19T00:28:19;100732.78;;;23.53;100.00
44765;BME280;30484;52.382;5.260;2023-09-19T00:30:48;100744.38;;;22.68;100.00
44765;BME280;30484;52.382;5.260;2023-09-19T00:33:18;100742.13;;;22.64;100.00
44765;BME280;30484;52.382;5.260;2023-09-19T00:35:51;100741.09;;;23.43;100.00
44765;BME280;30484;52.382;5.260;2023-09-19T00:38:21;100742.56;;;23.30;100.00
44765;BME280;30484;52.382;5.260;2023-09-19T00:40:55;100748.25;;;23.87;100.00
44765;BME280;30484;52.382;5.260;2023-09-19T00:43:27;100749.34;;;23.25;100.00
44765;BME280;30484;52.382;5.260;2023-09-19T00:45:56;100748.94;;;23.47;100.00
44765;BME280;30484;52.382;5.260;2023-09-19T00:48:28;100747.69;;;23.33;100.00
44765;BME280;30484;52.382;5.260;2023-09-19T00:50:59;100761.06;;;23.52;100.00
44765;BME280;30484;52.382;5.260;2023-09-19T00:53:31;100759.84;;;23.89;100.00
44765;BME280;30484;52.382;5.260;2023-09-19T00:56:03;100758.72;;;23.66;100.00
44765;BME280;30484;52.382;5.260;2023-09-19T00:58:32;100762.97;;;23.25;100.00
44765;BME280;30484;52.382;5.260;2023-09-19T01:01:02;100761.56;;;23.90;100.00
44765;BME280;30484;52.382;5.260;2023-09-19T01:03:34;100763.50;;;23.03;100.00
44765;BME280;30484;52.382;5.260;2023-09-19T01:06:03;100759.16;;;23.44;100.00
44765;BME280;30484;52.382;5.260;2023-09-19T01:08:32;100760.56;;;23.91;100.00
44765;BME280;30484;52.382;5.260;2023-09-19T01:11:13;100762.41;;;23.48;100.00
44765;BME280;30484;52.382;5.260;2023-09-19T01:13:54;100766.19;;;23.55;100.00
44765;BME280;30484;52.382;5.260;2023-09-19T01:16:35;100767.13;;;23.38;100.00
44765;BME280;30484;52.382;5.260;2023-09-19T01:19:38;100761.03;;;23.44;100.00
44765;BME280;30484;52.382;5.260;2023-09-19T01:22:18;100766.94;;;23.74;100.00
44765;BME280;30484;52.382;5.260;2023-09-19T01:25:13;100763.28;;;22.70;100.00
44765;BME280;30484;52.382;5.260;2023-09-19T01:28:13;100761.72;;;23.12;100.00
44765;BME280;30484;52.382;5.260;2023-09-19T01:30:46;100754.84;;;23.76;100.00
44765;BME280;30484;52.382;5.260;2023-09-19T01:33:17;100755.59;;;22.29;100.00
44765;BME280;30484;52.382;5.260;2023-09-19T01:35:46;100763.53;;;22.58;100.00
44765;BME280;30484;52.382;5.260;2023-09-19T01:38:16;100760.78;;;22.58;100.00
44765;BME280;30484;52.382;5.260;2023-09-19T01:40:57;100759.28;;;22.82;100.00
44765;BME280;30484;52.382;5.260;2023-09-19T01:43:33;100758.44;;;21.74;100.00
44765;BME280;30484;52.382;5.260;2023-09-19T01:46:12;100766.63;;;22.64;100.00
44765;BME280;30484;52.382;5.260;2023-09-19T01:48:57;100780.56;;;22.61;100.00
44765;BME280;30484;52.382;5.260;2023-09-19T01:51:37;100767.91;;;21.69;100.00
44765;BME280;30484;52.382;5.260;2023-09-19T01:54:11;100774.59;;;21.93;100.00
44765;BME280;30484;52.382;5.260;2023-09-19T01:56:59;100771.09;;;22.47;100.00
44765;BME280;30484;52.382;5.260;2023-09-19T01:59:36;100759.22;;;22.74;100.00
44765;BME280;30484;52.382;5.260;2023-09-19T02:02:09;100758.63;;;22.08;100.00
44765;BME280;30484;52.382;5.260;2023-09-19T02:04:38;100742.97;;;21.46;100.00
44765;BME280;30484;52.382;5.260;2023-09-19T02:07:07;100749.84;;;21.41;100.00
44765;BME280;30484;52.382;5.260;2023-09-19T02:09:35;100752.56;;;22.14;100.00
44765;BME280;30484;52.382;5.260;2023-09-19T02:12:06;100755.97;;;21.52;100.00
44765;BME280;30484;52.382;5.260;2023-09-19T02:14:40;100752.84;;;21.75;100.00
44765;BME280;30484;52.382;5.260;2023-09-19T02:17:09;100765.16;;;22.51;100.00
44765;BME280;30484;52.382;5.260;2023-09-19T02:19:39;100762.25;;;21.81;100.00
44765;BME280;30484;52.382;5.260;2023-09-19T02:22:08;100767.63;;;22.63;100.00
44765;BME280;30484;52.382;5.260;2023-09-19T02:24:37;100772.75;;;22.66;100.00
44765;BME280;30484;52.382;5.260;2023-09-19T02:27:06;100778.16;;;23.02;100.00
44765;BME280;30484;52.382;5.260;2023-09-19T02:29:35;100781.66;;;23.12;100.00
44765;BME280;30484;52.382;5.260;2023-09-19T02:32:04;100770.75;;;23.12;100.00
44765;BME280;30484;52.382;5.260;2023-09-19T02:34:35;100775.63;;;22.82;100.00
44765;BME280;30484;52.382;5.260;2023-09-19T02:37:03;100780.16;;;23.00;100.00
44765;BME280;30484;52.382;5.260;2023-09-19T02:39:33;100773.00;;;22.99;100.00
44765;BME280;30484;52.382;5.260;2023-09-19T02:42:01;100785.94;;;23.23;100.00
44765;BME280;30484;52.382;5.260;2023-09-19T02:44:31;100792.47;;;23.04;100.00
44765;BME280;30484;52.382;5.260;2023-09-19T02:46:59;100793.44;;;22.50;100.00
44765;BME280;30484;52.382;5.260;2023-09-19T02:49:28;100787.56;;;23.07;100.00
44765;BME280;30484;52.382;5.260;2023-09-19T02:51:58;100791.66;;;21.95;100.00
44765;BME280;30484;52.382;5.260;2023-09-19T02:54:27;100783.78;;;22.10;100.00
44765;BME280;30484;52.382;5.260;2023-09-19T02:56:55;100785.94;;;21.88;100.00
44765;BME280;30484;52.382;5.260;2023-09-19T02:59:24;100785.75;;;22.18;100.00
44765;BME280;30484;52.382;5.260;2023-09-19T03:01:52;100785.63;;;21.26;100.00
44765;BME280;30484;52.382;5.260;2023-09-19T03:04:21;100775.78;;;21.91;100.00
44765;BME280;30484;52.382;5.260;2023-09-19T03:06:52;100770.53;;;21.14;100.00
44765;BME280;30484;52.382;5.260;2023-09-19T03:09:27;100754.84;;;21.73;100.00
44765;BME280;30484;52.382;5.260;2023-09-19T03:11:55;100773.59;;;21.01;100.00
44765;BME280;30484;52.382;5.260;2023-09-19T03:14:23;100772.06;;;21.64;100.00
44765;BME280;30484;52.382;5.260;2023-09-19T03:16:52;100768.84;;;21.03;100.00
44765;BME280;30484;52.382;5.260;2023-09-19T03:19:21;100757.41;;;21.09;100.00
44765;BME280;30484;52.382;5.260;2023-09-19T03:21:51;100766.19;;;21.31;100.00
44765;BME280;30484;52.382;5.260;2023-09-19T03:24:20;100766.81;;;21.80;100.00
44765;BME280;30484;52.382;5.260;2023-09-19T03:26:49;100758.94;;;22.05;100.00
44765;BME280;30484;52.382;5.260;2023-09-19T03:29:18;100767.84;;;21.79;100.00
44765;BME280;30484;52.382;5.260;2023-09-19T03:31:46;100754.34;;;22.23;100.00
44765;BME280;30484;52.382;5.260;2023-09-19T03:34:14;100758.22;;;21.47;100.00
44765;BME280;30484;52.382;5.260;2023-09-19T03:36:43;100757.47;;;22.11;100.00
44765;BME280;30484;52.382;5.260;2023-09-19T03:39:11;100761.13;;;22.19;100.00
44765;BME280;30484;52.382;5.260;2023-09-19T03:41:42;100761.34;;;22.08;100.00
44765;BME280;30484;52.382;5.260;2023-09-19T03:44:13;100752.19;;;22.09;100.00
44765;BME280;30484;52.382;5.260;2023-09-19T03:46:42;100761.50;;;21.61;100.00
44765;BME280;30484;52.382;5.260;2023-09-19T03:49:10;100754.84;;;22.37;100.00
44765;BME280;30484;52.382;5.260;2023-09-19T03:51:39;100772.81;;;21.56;100.00
44765;BME280;30484;52.382;5.260;2023-09-19T03:54:08;100778.97;;;22.04;100.00
44765;BME280;30484;52.382;5.260;2023-09-19T03:56:37;100793.03;;;21.53;100.00
44765;BME280;30484;52.382;5.260;2023-09-19T03:59:05;100785.38;;;22.31;100.00
44765;BME280;30484;52.382;5.260;2023-09-19T04:01:36;100784.72;;;22.01;100.00
44765;BME280;30484;52.382;5.260;2023-09-19T04:04:06;100788.69;;;22.24;100.00
44765;BME280;30484;52.382;5.260;2023-09-19T04:06:36;100790.19;;;21.35;100.00
44765;BME280;30484;52.382;5.260;2023-09-19T04:09:05;100793.72;;;21.83;100.00
44765;BME280;30484;52.382;5.260;2023-09-19T04:11:36;100801.66;;;21.67;100.00
44765;BME280;30484;52.382;5.260;2023-09-19T04:14:14;100806.50;;;22.01;100.00
44765;BME280;30484;52.382;5.260;2023-09-19T04:16:47;100807.81;;;21.21;100.00
44765;BME280;30484;52.382;5.260;2023-09-19T04:19:23;100809.72;;;21.49;100.00
44765;BME280;30484;52.382;5.260;2023-09-19T04:21:55;100806.47;;;21.45;100.00
44765;BME280;30484;52.382;5.260;2023-09-19T04:24:31;100811.47;;;20.93;100.00
44765;BME280;30484;52.382;5.260;2023-09-19T04:27:13;100817.97;;;21.67;100.00
44765;BME280;30484;52.382;5.260;2023-09-19T04:29:50;100818.56;;;22.16;100.00
44765;BME280;30484;52.382;5.260;2023-09-19T04:32:29;100826.44;;;21.64;100.00
44765;BME280;30484;52.382;5.260;2023-09-19T04:35:01;100826.63;;;21.05;100.00
44765;BME280;30484;52.382;5.260;2023-09-19T04:37:38;100823.47;;;22.31;100.00
44765;BME280;30484;52.382;5.260;2023-09-19T04:40:10;100820.00;;;21.65;100.00
44765;BME280;30484;52.382;5.260;2023-09-19T04:42:53;100820.44;;;21.60;100.00
44765;BME280;30484;52.382;5.260;2023-09-19T04:45:23;100818.22;;;21.36;100.00
44765;BME280;30484;52.382;5.260;2023-09-19T04:47:53;100821.75;;;21.56;100.00
44765;BME280;30484;52.382;5.260;2023-09-19T04:50:22;100827.81;;;22.23;100.00
44765;BME280;30484;52.382;5.260;2023-09-19T04:52:53;100836.41;;;21.73;100.00
44765;BME280;30484;52.382;5.260;2023-09-19T04:55:22;100834.03;;;21.50;100.00
44765;BME280;30484;52.382;5.260;2023-09-19T04:57:51;100833.81;;;22.27;100.00
44765;BME280;30484;52.382;5.260;2023-09-19T05:00:22;100830.41;;;22.43;100.00
44765;BME280;30484;52.382;5.260;2023-09-19T05:02:56;100831.44;;;22.78;100.00
44765;BME280;30484;52.382;5.260;2023-09-19T05:05:25;100845.84;;;22.24;100.00
44765;BME280;30484;52.382;5.260;2023-09-19T05:07:53;100839.59;;;22.78;100.00
44765;BME280;30484;52.382;5.260;2023-09-19T05:10:22;100836.38;;;22.29;100.00
44765;BME280;30484;52.382;5.260;2023-09-19T05:12:53;100836.84;;;22.24;100.00
44765;BME280;30484;52.382;5.260;2023-09-19T05:15:22;100843.44;;;21.66;100.00
44765;BME280;30484;52.382;5.260;2023-09-19T05:17:53;100843.13;;;22.06;100.00
44765;BME280;30484;52.382;5.260;2023-09-19T05:20:25;100836.59;;;21.04;100.00
44765;BME280;30484;52.382;5.260;2023-09-19T05:23:02;100845.88;;;21.02;100.00
44765;BME280;30484;52.382;5.260;2023-09-19T05:25:39;100835.75;;;22.17;100.00
44765;BME280;30484;52.382;5.260;2023-09-19T05:28:10;100845.09;;;21.86;100.00
44765;BME280;30484;52.382;5.260;2023-09-19T05:30:42;100837.00;;;21.67;100.00
44765;BME280;30484;52.382;5.260;2023-09-19T05:33:23;100838.94;;;21.57;100.00
44765;BME280;30484;52.382;5.260;2023-09-19T05:35:52;100845.84;;;22.24;100.00
44765;BME280;30484;52.382;5.260;2023-09-19T05:38:21;100845.00;;;21.31;100.00
44765;BME280;30484;52.382;5.260;2023-09-19T05:40:49;100847.28;;;21.73;100.00
44765;BME280;30484;52.382;5.260;2023-09-19T05:43:18;100854.75;;;21.04;100.00
44765;BME280;30484;52.382;5.260;2023-09-19T05:45:46;100851.88;;;21.72;100.00
44765;BME280;30484;52.382;5.260;2023-09-19T05:48:16;100847.22;;;20.88;100.00
44765;BME280;30484;52.382;5.260;2023-09-19T05:50:45;100846.16;;;21.66;100.00
44765;BME280;30484;52.382;5.260;2023-09-19T05:53:17;100852.47;;;21.94;100.00
44765;BME280;30484;52.382;5.260;2023-09-19T05:55:46;100858.16;;;20.38;100.00
44765;BME280;30484;52.382;5.260;2023-09-19T05:58:14;100852.06;;;21.04;100.00
44765;BME280;30484;52.382;5.260;2023-09-19T06:00:45;100854.03;;;21.12;100.00
44765;BME280;30484;52.382;5.260;2023-09-19T06:03:16;100853.72;;;21.15;100.00
44765;BME280;30484;52.382;5.260;2023-09-19T06:05:46;100857.44;;;21.24;100.00
44765;BME280;30484;52.382;5.260;2023-09-19T06:08:16;100857.19;;;20.88;100.00
44765;BME280;30484;52.382;5.260;2023-09-19T06:10:46;100857.53;;;21.51;100.00
44765;BME280;30484;52.382;5.260;2023-09-19T06:13:14;100858.47;;;20.44;100.00
44765;BME280;30484;52.382;5.260;2023-09-19T06:15:43;100856.66;;;20.84;100.00
44765;BME280;30484;52.382;5.260;2023-09-19T06:18:15;100865.22;;;20.69;100.00
44765;BME280;30484;52.382;5.260;2023-09-19T06:20:47;100849.19;;;20.96;100.00
44765;BME280;30484;52.382;5.260;2023-09-19T06:23:18;100850.03;;;21.16;100.00
44765;BME280;30484;52.382;5.260;2023-09-19T06:25:48;100831.34;;;22.06;100.00
44765;BME280;30484;52.382;5.260;2023-09-19T06:28:17;100837.47;;;21.62;100.00
44765;BME280;30484;52.382;5.260;2023-09-19T06:30:51;100840.38;;;21.79;100.00
44765;BME280;30484;52.382;5.260;2023-09-19T06:33:21;100843.91;;;21.04;100.00
44765;BME280;30484;52.382;5.260;2023-09-19T06:35:51;100856.41;;;21.82;100.00
44765;BME280;30484;52.382;5.260;2023-09-19T06:38:26;100847.53;;;21.80;100.00
44765;BME280;30484;52.382;5.260;2023-09-19T06:40:55;100858.91;;;21.93;100.00
44765;BME280;30484;52.382;5.260;2023-09-19T06:43:24;100856.03;;;22.50;100.00
44765;BME280;30484;52.382;5.260;2023-09-19T06:45:53;100867.78;;;23.31;100.00
44765;BME280;30484;52.382;5.260;2023-09-19T06:48:24;100864.88;;;22.88;100.00
44765;BME280;30484;52.382;5.260;2023-09-19T06:50:53;100860.81;;;21.55;100.00
44765;BME280;30484;52.382;5.260;2023-09-19T06:53:22;100859.44;;;22.06;100.00
44765;BME280;30484;52.382;5.260;2023-09-19T06:55:51;100851.41;;;22.33;100.00
44765;BME280;30484;52.382;5.260;2023-09-19T06:58:20;100851.81;;;22.38;100.00
44765;BME280;30484;52.382;5.260;2023-09-19T07:00:49;100848.03;;;22.21;100.00
44765;BME280;30484;52.382;5.260;2023-09-19T07:03:17;100861.16;;;22.89;100.00
44765;BME280;30484;52.382;5.260;2023-09-19T07:05:48;100858.66;;;22.42;100.00
44765;BME280;30484;52.382;5.260;2023-09-19T07:08:17;100872.38;;;22.22;100.00
44765;BME280;30484;52.382;5.260;2023-09-19T07:10:47;100866.34;;;21.63;100.00
44765;BME280;30484;52.382;5.260;2023-09-19T07:13:17;100865.53;;;22.46;100.00
44765;BME280;30484;52.382;5.260;2023-09-19T07:15:48;100873.13;;;22.43;100.00
44765;BME280;30484;52.382;5.260;2023-09-19T07:18:18;100884.78;;;23.07;100.00
44765;BME280;30484;52.382;5.260;2023-09-19T07:20:48;100881.69;;;23.02;100.00
44765;BME280;30484;52.382;5.260;2023-09-19T07:23:18;100881.41;;;22.69;100.00
44765;BME280;30484;52.382;5.260;2023-09-19T07:25:49;100879.22;;;22.72;100.00
44765;BME280;30484;52.382;5.260;2023-09-19T07:28:18;100883.47;;;22.39;100.00
44765;BME280;30484;52.382;5.260;2023-09-19T07:30:52;100885.50;;;22.09;100.00
44765;BME280;30484;52.382;5.260;2023-09-19T07:33:20;100885.56;;;21.89;100.00
44765;BME280;30484;52.382;5.260;2023-09-19T07:35:50;100890.03;;;23.00;100.00
44765;BME280;30484;52.382;5.260;2023-09-19T07:38:19;100894.59;;;23.00;100.00
44765;BME280;30484;52.382;5.260;2023-09-19T07:40:49;100898.66;;;22.96;100.00
44765;BME280;30484;52.382;5.260;2023-09-19T07:43:19;100899.97;;;23.54;100.00
44765;BME280;30484;52.382;5.260;2023-09-19T07:45:47;100906.34;;;23.36;100.00
44765;BME280;30484;52.382;5.260;2023-09-19T07:48:16;100887.59;;;22.43;100.00
44765;BME280;30484;52.382;5.260;2023-09-19T07:50:45;100893.97;;;22.70;100.00
44765;BME280;30484;52.382;5.260;2023-09-19T07:53:15;100892.25;;;22.23;100.00
44765;BME280;30484;52.382;5.260;2023-09-19T07:55:44;100891.94;;;23.08;100.00
44765;BME280;30484;52.382;5.260;2023-09-19T07:58:15;100889.53;;;23.05;100.00
44765;BME280;30484;52.382;5.260;2023-09-19T08:00:44;100894.94;;;23.93;100.00
44765;BME280;30484;52.382;5.260;2023-09-19T08:03:13;100897.09;;;24.33;100.00
44765;BME280;30484;52.382;5.260;2023-09-19T08:05:47;100901.72;;;23.89;100.00
44765;BME280;30484;52.382;5.260;2023-09-19T08:08:19;100901.25;;;24.45;100.00
44765;BME280;30484;52.382;5.260;2023-09-19T08:10:53;100906.97;;;24.25;100.00
44765;BME280;30484;52.382;5.260;2023-09-19T08:13:31;100891.19;;;24.54;100.00
44765;BME280;30484;52.382;5.260;2023-09-19T08:15:59;100905.38;;;24.57;100.00
44765;BME280;30484;52.382;5.260;2023-09-19T08:18:27;100889.06;;;24.15;100.00
44765;BME280;30484;52.382;5.260;2023-09-19T08:20:57;100892.13;;;25.12;100.00
44765;BME280;30484;52.382;5.260;2023-09-19T08:23:30;100889.53;;;25.60;100.00
44765;BME280;30484;52.382;5.260;2023-09-19T08:26:05;100893.41;;;24.50;100.00
44765;BME280;30484;52.382;5.260;2023-09-19T08:28:35;100893.47;;;23.81;100.00
44765;BME280;30484;52.382;5.260;2023-09-19T08:31:04;100884.84;;;24.28;100.00
44765;BME280;30484;52.382;5.260;2023-09-19T08:33:33;100885.91;;;25.59;100.00
44765;BME280;30484;52.382;5.260;2023-09-19T08:36:03;100881.66;;;24.07;100.00
44765;BME280;30484;52.382;5.260;2023-09-19T08:38:35;100877.81;;;23.83;100.00
44765;BME280;30484;52.382;5.260;2023-09-19T08:41:06;100880.88;;;23.80;100.00
44765;BME280;30484;52.382;5.260;2023-09-19T08:43:40;100880.84;;;24.90;100.00
44765;BME280;30484;52.382;5.260;2023-09-19T08:46:11;100885.94;;;24.09;100.00
44765;BME280;30484;52.382;5.260;2023-09-19T08:48:46;100889.50;;;24.02;100.00
44765;BME280;30484;52.382;5.260;2023-09-19T08:51:27;100889.41;;;24.28;100.00
44765;BME280;30484;52.382;5.260;2023-09-19T08:54:07;100888.13;;;23.98;100.00
44765;BME280;30484;52.382;5.260;2023-09-19T08:56:37;100889.25;;;24.29;100.00
44765;BME280;30484;52.382;5.260;2023-09-19T08:59:07;100888.84;;;25.16;100.00
44765;BME280;30484;52.382;5.260;2023-09-19T09:01:36;100889.41;;;24.87;100.00
44765;BME280;30484;52.382;5.260;2023-09-19T09:04:10;100887.50;;;26.10;100.00
44765;BME280;30484;52.382;5.260;2023-09-19T09:06:42;100884.09;;;24.94;100.00
44765;BME280;30484;52.382;5.260;2023-09-19T09:09:13;100879.22;;;25.70;100.00
44765;BME280;30484;52.382;5.260;2023-09-19T09:11:41;100883.34;;;25.58;100.00
44765;BME280;30484;52.382;5.260;2023-09-19T09:14:10;100882.09;;;24.37;100.00
44765;BME280;30484;52.382;5.260;2023-09-19T09:16:40;100875.28;;;25.73;100.00
44765;BME280;30484;52.382;5.260;2023-09-19T09:19:08;100880.16;;;25.46;100.00
44765;BME280;30484;52.382;5.260;2023-09-19T09:21:38;100880.91;;;25.79;100.00
44765;BME280;30484;52.382;5.260;2023-09-19T09:24:30;100884.91;;;25.44;100.00
44765;BME280;30484;52.382;5.260;2023-09-19T09:27:04;100886.09;;;25.49;100.00
44765;BME280;30484;52.382;5.260;2023-09-19T09:29:46;100886.13;;;24.84;100.00
44765;BME280;30484;52.382;5.260;2023-09-19T09:32:27;100877.78;;;25.35;100.00
44765;BME280;30484;52.382;5.260;2023-09-19T09:34:58;100882.91;;;24.80;100.00
44765;BME280;30484;52.382;5.260;2023-09-19T09:37:28;100887.16;;;26.05;100.00
44765;BME280;30484;52.382;5.260;2023-09-19T09:40:02;100879.94;;;26.12;100.00
44765;BME280;30484;52.382;5.260;2023-09-19T09:42:46;100882.75;;;25.87;100.00
44765;BME280;30484;52.382;5.260;2023-09-19T09:45:21;100893.50;;;25.24;100.00
44765;BME280;30484;52.382;5.260;2023-09-19T09:48:07;100892.34;;;25.83;100.00
44765;BME280;30484;52.382;5.260;2023-09-19T09:50:47;100887.66;;;25.27;100.00
44765;BME280;30484;52.382;5.260;2023-09-19T09:53:24;100892.13;;;24.79;100.00
44765;BME280;30484;52.382;5.260;2023-09-19T09:56:02;100870.25;;;25.28;100.00
44765;BME280;30484;52.382;5.260;2023-09-19T09:58:34;100860.28;;;26.63;100.00
44765;BME280;30484;52.382;5.260;2023-09-19T10:01:05;100862.44;;;26.52;100.00
44765;BME280;30484;52.382;5.260;2023-09-19T10:03:39;100862.22;;;25.91;100.00
44765;BME280;30484;52.382;5.260;2023-09-19T10:06:13;100856.56;;;26.01;100.00
44765;BME280;30484;52.382;5.260;2023-09-19T10:09:03;100856.19;;;26.35;100.00
44765;BME280;30484;52.382;5.260;2023-09-19T10:11:47;100861.72;;;26.27;100.00
44765;BME280;30484;52.382;5.260;2023-09-19T10:14:25;100861.25;;;26.78;100.00
44765;BME280;30484;52.382;5.260;2023-09-19T10:17:00;100848.84;;;26.05;100.00
44765;BME280;30484;52.382;5.260;2023-09-19T10:19:37;100833.13;;;25.90;100.00
44765;BME280;30484;52.382;5.260;2023-09-19T10:22:15;100831.38;;;26.06;100.00
44765;BME280;30484;52.382;5.260;2023-09-19T10:24:48;100840.59;;;26.13;100.00
44765;BME280;30484;52.382;5.260;2023-09-19T10:27:31;100832.47;;;25.88;100.00
44765;BME280;30484;52.382;5.260;2023-09-19T10:30:07;100836.09;;;26.66;100.00
44765;BME280;30484;52.382;5.260;2023-09-19T10:32:40;100818.31;;;26.16;100.00
44765;BME280;30484;52.382;5.260;2023-09-19T10:35:11;100796.56;;;26.46;100.00
44765;BME280;30484;52.382;5.260;2023-09-19T10:37:41;100808.03;;;26.64;100.00
44765;BME280;30484;52.382;5.260;2023-09-19T10:40:12;100808.81;;;26.96;100.00
44765;BME280;30484;52.382;5.260;2023-09-19T10:42:46;100803.13;;;26.37;100.00
44765;BME280;30484;52.382;5.260;2023-09-19T10:45:17;100798.97;;;26.41;100.00
44765;BME280;30484;52.382;5.260;2023-09-19T10:47:50;100804.56;;;26.24;100.00
44765;BME280;30484;52.382;5.260;2023-09-19T10:50:20;100790.44;;;26.82;100.00
44765;BME280;30484;52.382;5.260;2023-09-19T10:52:50;100802.84;;;27.46;100.00
44765;BME280;30484;52.382;5.260;2023-09-19T10:55:25;100796.31;;;26.56;100.00
44765;BME280;30484;52.382;5.260;2023-09-19T10:57:59;100801.84;;;27.83;100.00
44765;BME280;30484;52.382;5.260;2023-09-19T11:00:55;100792.78;;;26.70;100.00
44765;BME280;30484;52.382;5.260;2023-09-19T11:03:24;100781.66;;;27.40;100.00
44765;BME280;30484;52.382;5.260;2023-09-19T11:06:07;100793.75;;;26.31;100.00
44765;BME280;30484;52.382;5.260;2023-09-19T11:08:58;100792.88;;;26.07;100.00
44765;BME280;30484;52.382;5.260;2023-09-19T11:11:51;100795.25;;;26.33;100.00
44765;BME280;30484;52.382;5.260;2023-09-19T11:14:39;100790.84;;;26.32;100.00
44765;BME280;30484;52.382;5.260;2023-09-19T11:17:41;100786.50;;;26.84;100.00
44765;BME280;30484;52.382;5.260;2023-09-19T11:20:29;100794.47;;;26.48;100.00
44765;BME280;30484;52.382;5.260;2023-09-19T11:23:21;100786.69;;;26.83;100.00
44765;BME280;30484;52.382;5.260;2023-09-19T11:25:54;100787.59;;;26.29;100.00
44765;BME280;30484;52.382;5.260;2023-09-19T11:28:35;100775.63;;;26.30;100.00
44765;BME280;30484;52.382;5.260;2023-09-19T11:31:46;100771.25;;;26.82;100.00
44765;BME280;30484;52.382;5.260;2023-09-19T11:34:43;100780.59;;;27.41;100.00
44765;BME280;30484;52.382;5.260;2023-09-19T11:37:59;100773.00;;;27.28;100.00
44765;BME280;30484;52.382;5.260;2023-09-19T11:40:30;100783.53;;;27.54;100.00
44765;BME280;30484;52.382;5.260;2023-09-19T11:42:58;100768.19;;;27.15;100.00
44765;BME280;30484;52.382;5.260;2023-09-19T11:46:08;100778.19;;;27.08;100.00
44765;BME280;30484;52.382;5.260;2023-09-19T11:48:42;100779.81;;;27.32;100.00
44765;BME280;30484;52.382;5.260;2023-09-19T11:51:18;100771.88;;;27.07;100.00
44765;BME280;30484;52.382;5.260;2023-09-19T11:53:51;100774.47;;;27.90;100.00
44765;BME280;30484;52.382;5.260;2023-09-19T11:56:21;100758.34;;;27.06;100.00
44765;BME280;30484;52.382;5.260;2023-09-19T11:58:52;100772.50;;;26.10;100.00
44765;BME280;30484;52.382;5.260;2023-09-19T12:01:25;100775.91;;;26.12;100.00
44765;BME280;30484;52.382;5.260;2023-09-19T12:04:01;100778.97;;;27.31;100.00
44765;BME280;30484;52.382;5.260;2023-09-19T12:06:34;100769.50;;;27.19;100.00
44765;BME280;30484;52.382;5.260;2023-09-19T12:09:12;100767.16;;;27.46;100.00
44765;BME280;30484;52.382;5.260;2023-09-19T12:11:43;100773.66;;;26.39;100.00
44765;BME280;30484;52.382;5.260;2023-09-19T12:14:22;100768.44;;;26.75;100.00
44765;BME280;30484;52.382;5.260;2023-09-19T12:16:54;100767.44;;;26.22;100.00
44765;BME280;30484;52.382;5.260;2023-09-19T12:19:25;100770.34;;;26.66;100.00
44765;BME280;30484;52.382;5.260;2023-09-19T12:21:58;100765.75;;;26.44;100.00
44765;BME280;30484;52.382;5.260;2023-09-19T12:24:31;100775.47;;;26.46;100.00
44765;BME280;30484;52.382;5.260;2023-09-19T12:27:07;100766.47;;;26.38;100.00
44765;BME280;30484;52.382;5.260;2023-09-19T12:29:44;100757.91;;;25.46;100.00
44765;BME280;30484;52.382;5.260;2023-09-19T12:32:13;100769.25;;;26.06;100.00
44765;BME280;30484;52.382;5.260;2023-09-19T12:34:52;100768.28;;;25.91;100.00
44765;BME280;30484;52.382;5.260;2023-09-19T12:37:22;100769.94;;;25.77;100.00
44765;BME280;30484;52.382;5.260;2023-09-19T12:40:05;100772.19;;;25.96;100.00
44765;BME280;30484;52.382;5.260;2023-09-19T12:42:45;100775.22;;;26.79;100.00
44765;BME280;30484;52.382;5.260;2023-09-19T12:45:14;100766.34;;;26.54;100.00
44765;BME280;30484;52.382;5.260;2023-09-19T12:48:20;100760.66;;;26.79;100.00
44765;BME280;30484;52.382;5.260;2023-09-19T12:51:02;100766.09;;;27.77;100.00
44765;BME280;30484;52.382;5.260;2023-09-19T12:53:36;100773.09;;;27.04;100.00
44765;BME280;30484;52.382;5.260;2023-09-19T12:56:13;100768.38;;;26.98;100.00
44765;BME280;30484;52.382;5.260;2023-09-19T12:58:51;100761.97;;;26.45;100.00
44765;BME280;30484;52.382;5.260;2023-09-19T13:01:23;100768.66;;;27.33;100.00
44765;BME280;30484;52.382;5.260;2023-09-19T13:04:15;100757.31;;;27.21;100.00
44765;BME280;30484;52.382;5.260;2023-09-19T13:06:50;100771.31;;;26.97;100.00
44765;BME280;30484;52.382;5.260;2023-09-19T13:09:20;100766.53;;;26.91;100.00
44765;BME280;30484;52.382;5.260;2023-09-19T13:11:49;100766.28;;;27.75;100.00